sensor_id;sensor_type;location;lat;lon;timestamp;pressure;altitude;pressure_sealevel;temperature;humidity
22872;BME280;11603;44.910;8.630;2022-10-22T00:02:10;100457.88;;;18.52;100.00
22872;BME280;11603;44.910;8.630;2022-10-22T00:04:35;100456.00;;;18.53;100.00
22872;BME280;11603;44.910;8.630;2022-10-22T00:07:01;100453.03;;;18.56;100.00
22872;BME280;11603;44.910;8.630;2022-10-22T00:09:27;100459.88;;;18.50;100.00
22872;BME280;11603;44.910;8.630;2022-10-22T00:11:52;100452.59;;;18.51;100.00
22872;BME280;11603;44.910;8.630;2022-10-22T00:14:18;100467.59;;;18.45;100.00
22872;BME280;11603;44.910;8.630;2022-10-22T00:16:44;100475.72;;;18.45;100.00
22872;BME280;11603;44.910;8.630;2022-10-22T00:19:09;100479.56;;;18.43;100.00
22872;BME280;11603;44.910;8.630;2022-10-22T00:21:35;100478.91;;;18.31;100.00
22872;BME280;11603;44.910;8.630;2022-10-22T00:24:01;100476.91;;;18.24;100.00
22872;BME280;11603;44.910;8.630;2022-10-22T00:26:26;100473.25;;;18.15;100.00
22872;BME280;11603;44.910;8.630;2022-10-22T00:28:53;100481.81;;;18.10;100.00
22872;BME280;11603;44.910;8.630;2022-10-22T00:31:18;100494.06;;;18.14;100.00
22872;BME280;11603;44.910;8.630;2022-10-22T00:33:47;100492.91;;;18.17;100.00
22872;BME280;11603;44.910;8.630;2022-10-22T00:36:13;100478.34;;;18.18;100.00
22872;BME280;11603;44.910;8.630;2022-10-22T00:38:39;100478.34;;;18.18;100.00
22872;BME280;11603;44.910;8.630;2022-10-22T00:41:05;100478.81;;;18.13;100.00
22872;BME280;11603;44.910;8.630;2022-10-22T00:43:31;100476.22;;;18.12;100.00
22872;BME280;11603;44.910;8.630;2022-10-22T00:45:56;100478.94;;;18.12;100.00
22872;BME280;11603;44.910;8.630;2022-10-22T00:48:27;100474.97;;;18.16;100.00
22872;BME280;11603;44.910;8.630;2022-10-22T00:53:26;100487.78;;;18.14;100.00
22872;BME280;11603;44.910;8.630;2022-10-22T00:55:53;100465.13;;;18.15;100.00
22872;BME280;11603;44.910;8.630;2022-10-22T00:58:24;100439.81;;;17.97;100.00
22872;BME280;11603;44.910;8.630;2022-10-22T01:00:50;100468.59;;;17.98;100.00
22872;BME280;11603;44.910;8.630;2022-10-22T01:03:16;100444.22;;;17.98;100.00
22872;BME280;11603;44.910;8.630;2022-10-22T01:06:02;100439.81;;;17.97;100.00
22872;BME280;11603;44.910;8.630;2022-10-22T01:14:18;100417.25;;;18.06;100.00
22872;BME280;11603;44.910;8.630;2022-10-22T01:16:58;100422.13;;;18.02;100.00
22872;BME280;11603;44.910;8.630;2022-10-22T01:24:43;100447.47;;;18.01;100.00
22872;BME280;11603;44.910;8.630;2022-10-22T01:30:06;100442.66;;;17.95;100.00
22872;BME280;11603;44.910;8.630;2022-10-22T01:32:42;100445.63;;;18.02;100.00
22872;BME280;11603;44.910;8.630;2022-10-22T01:35:12;100436.94;;;18.08;100.00
22872;BME280;11603;44.910;8.630;2022-10-22T01:37:45;100437.47;;;18.11;100.00
22872;BME280;11603;44.910;8.630;2022-10-22T01:40:13;100434.94;;;18.10;100.00
22872;BME280;11603;44.910;8.630;2022-10-22T01:42:39;100438.66;;;18.09;100.00
22872;BME280;11603;44.910;8.630;2022-10-22T01:45:13;100450.63;;;17.97;100.00
22872;BME280;11603;44.910;8.630;2022-10-22T01:47:48;100439.69;;;17.89;100.00
22872;BME280;11603;44.910;8.630;2022-10-22T01:53:16;100442.06;;;18.01;100.00
22872;BME280;11603;44.910;8.630;2022-10-22T01:55:55;100434.94;;;18.10;100.00
22872;BME280;11603;44.910;8.630;2022-10-22T02:01:04;100417.66;;;18.20;100.00
22872;BME280;11603;44.910;8.630;2022-10-22T02:03:39;100401.97;;;18.24;100.00
22872;BME280;11603;44.910;8.630;2022-10-22T02:06:11;100415.19;;;18.27;100.00
22872;BME280;11603;44.910;8.630;2022-10-22T02:08:38;100426.06;;;18.17;100.00
22872;BME280;11603;44.910;8.630;2022-10-22T02:11:04;100419.09;;;18.15;100.00
22872;BME280;11603;44.910;8.630;2022-10-22T02:13:34;100433.31;;;18.17;100.00
22872;BME280;11603;44.910;8.630;2022-10-22T02:16:03;100426.66;;;18.11;100.00
22872;BME280;11603;44.910;8.630;2022-10-22T02:18:31;100424.53;;;18.15;100.00
22872;BME280;11603;44.910;8.630;2022-10-22T02:20:59;100423.66;;;18.14;100.00
22872;BME280;11603;44.910;8.630;2022-10-22T02:23:26;100419.34;;;18.21;100.00
22872;BME280;11603;44.910;8.630;2022-10-22T02:26:02;100435.72;;;18.30;100.00
22872;BME280;11603;44.910;8.630;2022-10-22T02:29:04;100431.03;;;18.32;100.00
22872;BME280;11603;44.910;8.630;2022-10-22T02:31:33;100427.47;;;18.31;100.00
22872;BME280;11603;44.910;8.630;2022-10-22T02:34:07;100430.16;;;18.31;100.00
22872;BME280;11603;44.910;8.630;2022-10-22T02:36:36;100427.00;;;18.36;100.00
22872;BME280;11603;44.910;8.630;2022-10-22T02:39:03;100430.41;;;18.38;100.00
22872;BME280;11603;44.910;8.630;2022-10-22T02:41:31;100430.19;;;18.21;100.00
22872;BME280;11603;44.910;8.630;2022-10-22T02:43:56;100441.84;;;18.22;100.00
22872;BME280;11603;44.910;8.630;2022-10-22T02:46:23;100434.47;;;18.24;100.00
22872;BME280;11603;44.910;8.630;2022-10-22T02:48:50;100428.59;;;18.29;100.00
22872;BME280;11603;44.910;8.630;2022-10-22T02:51:15;100418.22;;;18.24;100.00
22872;BME280;11603;44.910;8.630;2022-10-22T02:53:41;100422.19;;;18.30;100.00
22872;BME280;11603;44.910;8.630;2022-10-22T02:56:07;100428.59;;;18.29;100.00
22872;BME280;11603;44.910;8.630;2022-10-22T02:58:32;100430.00;;;18.33;100.00
22872;BME280;11603;44.910;8.630;2022-10-22T03:00:58;100446.09;;;18.34;100.00
22872;BME280;11603;44.910;8.630;2022-10-22T03:03:23;100436.84;;;18.37;100.00
22872;BME280;11603;44.910;8.630;2022-10-22T03:05:50;100443.25;;;18.36;100.00
22872;BME280;11603;44.910;8.630;2022-10-22T03:08:17;100436.44;;;18.32;100.00
22872;BME280;11603;44.910;8.630;2022-10-22T03:10:42;100444.97;;;18.37;100.00
22872;BME280;11603;44.910;8.630;2022-10-22T03:13:08;100455.50;;;18.40;100.00
22872;BME280;11603;44.910;8.630;2022-10-22T03:15:33;100450.78;;;18.42;100.00
22872;BME280;11603;44.910;8.630;2022-10-22T03:17:59;100451.53;;;18.34;100.00
22872;BME280;11603;44.910;8.630;2022-10-22T03:20:25;100439.16;;;18.32;100.00
22872;BME280;11603;44.910;8.630;2022-10-22T03:22:50;100446.50;;;18.39;100.00
22872;BME280;11603;44.910;8.630;2022-10-22T03:25:20;100444.25;;;18.35;100.00
22872;BME280;11603;44.910;8.630;2022-10-22T03:27:46;100447.28;;;18.32;100.00
22872;BME280;11603;44.910;8.630;2022-10-22T03:30:13;100458.97;;;18.23;100.00
22872;BME280;11603;44.910;8.630;2022-10-22T03:32:38;100447.72;;;18.17;100.00
22872;BME280;11603;44.910;8.630;2022-10-22T03:35:04;100447.03;;;18.15;100.00
22872;BME280;11603;44.910;8.630;2022-10-22T03:37:30;100460.81;;;18.22;100.00
22872;BME280;11603;44.910;8.630;2022-10-22T03:39:56;100434.03;;;18.19;100.00
22872;BME280;11603;44.910;8.630;2022-10-22T03:42:22;100449.53;;;18.27;100.00
22872;BME280;11603;44.910;8.630;2022-10-22T03:44:48;100444.38;;;18.33;100.00
22872;BME280;11603;44.910;8.630;2022-10-22T03:47:13;100447.81;;;18.35;100.00
22872;BME280;11603;44.910;8.630;2022-10-22T03:49:39;100444.13;;;18.27;100.00
22872;BME280;11603;44.910;8.630;2022-10-22T03:52:10;100442.69;;;18.32;100.00
22872;BME280;11603;44.910;8.630;2022-10-22T03:54:36;100431.44;;;18.37;100.00
22872;BME280;11603;44.910;8.630;2022-10-22T03:57:06;100445.66;;;18.39;100.00
22872;BME280;11603;44.910;8.630;2022-10-22T03:59:36;100440.38;;;18.37;100.00
22872;BME280;11603;44.910;8.630;2022-10-22T04:02:02;100443.41;;;18.34;100.00
22872;BME280;11603;44.910;8.630;2022-10-22T04:04:28;100435.31;;;18.25;100.00
22872;BME280;11603;44.910;8.630;2022-10-22T04:06:54;100448.25;;;18.31;100.00
22872;BME280;11603;44.910;8.630;2022-10-22T04:09:19;100453.38;;;18.34;100.00
22872;BME280;11603;44.910;8.630;2022-10-22T04:11:45;100427.88;;;18.36;100.00
22872;BME280;11603;44.910;8.630;2022-10-22T04:14:10;100442.66;;;18.42;100.00
22872;BME280;11603;44.910;8.630;2022-10-22T04:16:39;100442.00;;;18.30;100.00
22872;BME280;11603;44.910;8.630;2022-10-22T04:19:05;100439.16;;;18.32;100.00
22872;BME280;11603;44.910;8.630;2022-10-22T04:21:31;100442.41;;;18.35;100.00
22872;BME280;11603;44.910;8.630;2022-10-22T04:23:56;100438.38;;;18.39;100.00
22872;BME280;11603;44.910;8.630;2022-10-22T04:26:22;100420.88;;;18.34;100.00
22872;BME280;11603;44.910;8.630;2022-10-22T04:28:49;100430.72;;;18.35;100.00
22872;BME280;11603;44.910;8.630;2022-10-22T04:31:18;100433.41;;;18.35;100.00
22872;BME280;11603;44.910;8.630;2022-10-22T04:33:45;100425.16;;;18.27;100.00
22872;BME280;11603;44.910;8.630;2022-10-22T04:36:15;100438.44;;;18.30;100.00
22872;BME280;11603;44.910;8.630;2022-10-22T04:38:42;100427.47;;;18.31;100.00
22872;BME280;11603;44.910;8.630;2022-10-22T04:41:20;100436.84;;;18.27;100.00
22872;BME280;11603;44.910;8.630;2022-10-22T04:43:46;100426.78;;;18.19;100.00
22872;BME280;11603;44.910;8.630;2022-10-22T04:46:13;100433.28;;;18.27;100.00
22872;BME280;11603;44.910;8.630;2022-10-22T04:48:40;100441.31;;;18.18;100.00
22872;BME280;11603;44.910;8.630;2022-10-22T04:51:07;100440.59;;;18.26;100.00
22872;BME280;11603;44.910;8.630;2022-10-22T04:53:33;100452.09;;;18.28;100.00
22872;BME280;11603;44.910;8.630;2022-10-22T04:56:18;100440.31;;;18.19;100.00
22872;BME280;11603;44.910;8.630;2022-10-22T04:58:49;100456.97;;;18.25;100.00
22872;BME280;11603;44.910;8.630;2022-10-22T05:03:45;100456.97;;;18.25;100.00
22872;BME280;11603;44.910;8.630;2022-10-22T05:06:11;100462.56;;;18.13;100.00
22872;BME280;11603;44.910;8.630;2022-10-22T05:08:38;100453.16;;;18.08;100.00
22872;BME280;11603;44.910;8.630;2022-10-22T05:11:15;100453.75;;;18.02;100.00
22872;BME280;11603;44.910;8.630;2022-10-22T05:13:41;100450.34;;;18.00;100.00
22872;BME280;11603;44.910;8.630;2022-10-22T05:16:06;100460.75;;;18.04;100.00
22872;BME280;11603;44.910;8.630;2022-10-22T05:18:34;100465.03;;;17.97;100.00
22872;BME280;11603;44.910;8.630;2022-10-22T05:21:00;100465.31;;;18.04;100.00
22872;BME280;11603;44.910;8.630;2022-10-22T05:23:27;100471.13;;;18.09;100.00
22872;BME280;11603;44.910;8.630;2022-10-22T05:25:52;100471.41;;;18.06;100.00
22872;BME280;11603;44.910;8.630;2022-10-22T05:28:18;100469.72;;;17.95;100.00
22872;BME280;11603;44.910;8.630;2022-10-22T05:30:52;100466.44;;;17.92;100.00
22872;BME280;11603;44.910;8.630;2022-10-22T05:33:18;100468.03;;;17.94;100.00
22872;BME280;11603;44.910;8.630;2022-10-22T05:35:43;100475.28;;;17.94;100.00
22872;BME280;11603;44.910;8.630;2022-10-22T05:38:09;100463.59;;;18.03;100.00
22872;BME280;11603;44.910;8.630;2022-10-22T05:40:34;100472.53;;;18.13;100.00
22872;BME280;11603;44.910;8.630;2022-10-22T05:42:59;100475.13;;;18.05;100.00
22872;BME280;11603;44.910;8.630;2022-10-22T05:45:25;100464.31;;;17.95;100.00
22872;BME280;11603;44.910;8.630;2022-10-22T05:47:50;100470.00;;;17.92;100.00
22872;BME280;11603;44.910;8.630;2022-10-22T05:50:16;100470.31;;;17.89;100.00
22872;BME280;11603;44.910;8.630;2022-10-22T05:52:41;100482.13;;;17.88;100.00
22872;BME280;11603;44.910;8.630;2022-10-22T05:55:07;100484.84;;;17.88;100.00
22872;BME280;11603;44.910;8.630;2022-10-22T05:57:32;100496.78;;;17.95;100.00
22872;BME280;11603;44.910;8.630;2022-10-22T05:59:57;100488.94;;;18.02;100.00
22872;BME280;11603;44.910;8.630;2022-10-22T06:02:23;100498.66;;;17.95;100.00
22872;BME280;11603;44.910;8.630;2022-10-22T06:04:48;100503.78;;;17.88;100.00
22872;BME280;11603;44.910;8.630;2022-10-22T06:07:14;100503.22;;;17.85;100.00
22872;BME280;11603;44.910;8.630;2022-10-22T06:09:40;100509.88;;;17.90;100.00
22872;BME280;11603;44.910;8.630;2022-10-22T06:12:06;100514.72;;;17.96;100.00
22872;BME280;11603;44.910;8.630;2022-10-22T06:14:35;100514.47;;;17.99;100.00
22872;BME280;11603;44.910;8.630;2022-10-22T06:17:01;100525.25;;;18.09;100.00
22872;BME280;11603;44.910;8.630;2022-10-22T06:19:26;100540.78;;;18.07;100.00
22872;BME280;11603;44.910;8.630;2022-10-22T06:21:54;100535.38;;;17.97;100.00
22872;BME280;11603;44.910;8.630;2022-10-22T06:24:19;100546.09;;;17.89;100.00
22872;BME280;11603;44.910;8.630;2022-10-22T06:26:48;100561.19;;;17.92;100.00
22872;BME280;11603;44.910;8.630;2022-10-22T06:29:14;100560.91;;;17.95;100.00
22872;BME280;11603;44.910;8.630;2022-10-22T06:31:39;100566.75;;;18.00;100.00
22872;BME280;11603;44.910;8.630;2022-10-22T06:34:07;100570.28;;;17.91;100.00
22872;BME280;11603;44.910;8.630;2022-10-22T06:36:35;100573.41;;;17.86;100.00
22872;BME280;11603;44.910;8.630;2022-10-22T06:39:00;100580.84;;;17.84;100.00
22872;BME280;11603;44.910;8.630;2022-10-22T06:41:26;100587.13;;;17.94;100.00
22872;BME280;11603;44.910;8.630;2022-10-22T06:43:52;100592.53;;;18.04;100.00
22872;BME280;11603;44.910;8.630;2022-10-22T06:46:19;100598.63;;;18.06;100.00
22872;BME280;11603;44.910;8.630;2022-10-22T06:48:59;100604.75;;;18.08;100.00
22872;BME280;11603;44.910;8.630;2022-10-22T06:51:25;100611.03;;;18.08;100.00
22872;BME280;11603;44.910;8.630;2022-10-22T06:53:52;100614.47;;;18.20;100.00
22872;BME280;11603;44.910;8.630;2022-10-22T06:56:21;100631.56;;;18.20;100.00
22872;BME280;11603;44.910;8.630;2022-10-22T06:58:47;100636.38;;;18.27;100.00
22872;BME280;11603;44.910;8.630;2022-10-22T07:01:15;100640.97;;;18.26;100.00
22872;BME280;11603;44.910;8.630;2022-10-22T07:03:41;100644.38;;;18.28;100.00
22872;BME280;11603;44.910;8.630;2022-10-22T07:06:13;100645.09;;;18.30;100.00
22872;BME280;11603;44.910;8.630;2022-10-22T07:08:39;100645.34;;;18.27;100.00
22872;BME280;11603;44.910;8.630;2022-10-22T07:11:19;100663.19;;;18.30;100.00
22872;BME280;11603;44.910;8.630;2022-10-22T07:13:47;100660.63;;;18.28;100.00
22872;BME280;11603;44.910;8.630;2022-10-22T07:16:14;100650.63;;;18.38;100.00
22872;BME280;11603;44.910;8.630;2022-10-22T07:18:43;100647.34;;;18.44;100.00
22872;BME280;11603;44.910;8.630;2022-10-22T07:21:10;100653.94;;;18.42;100.00
22872;BME280;11603;44.910;8.630;2022-10-22T07:23:36;100662.63;;;18.45;100.00
22872;BME280;11603;44.910;8.630;2022-10-22T07:26:01;100665.88;;;18.58;100.00
22872;BME280;11603;44.910;8.630;2022-10-22T07:28:28;100678.13;;;18.53;100.00
22872;BME280;11603;44.910;8.630;2022-10-22T07:30:53;100667.75;;;18.58;100.00
22872;BME280;11603;44.910;8.630;2022-10-22T07:33:19;100677.44;;;18.60;100.00
22872;BME280;11603;44.910;8.630;2022-10-22T07:35:45;100677.28;;;18.72;100.00
22872;BME280;11603;44.910;8.630;2022-10-22T07:38:10;100677.13;;;18.83;100.00
22872;BME280;11603;44.910;8.630;2022-10-22T07:40:36;100682.38;;;18.84;100.00
22872;BME280;11603;44.910;8.630;2022-10-22T07:43:02;100687.97;;;18.83;100.00
22872;BME280;11603;44.910;8.630;2022-10-22T07:45:28;100686.97;;;18.74;100.00
22872;BME280;11603;44.910;8.630;2022-10-22T07:47:53;100694.53;;;18.80;100.00
22872;BME280;11603;44.910;8.630;2022-10-22T07:50:19;100692.81;;;18.79;100.00
22872;BME280;11603;44.910;8.630;2022-10-22T07:52:44;100700.78;;;18.90;100.00
22872;BME280;11603;44.910;8.630;2022-10-22T07:55:10;100716.22;;;18.80;100.00
22872;BME280;11603;44.910;8.630;2022-10-22T07:57:38;100718.22;;;18.78;100.00
22872;BME280;11603;44.910;8.630;2022-10-22T08:00:06;100721.66;;;18.71;100.00
22872;BME280;11603;44.910;8.630;2022-10-22T08:02:37;100724.38;;;18.61;100.00
22872;BME280;11603;44.910;8.630;2022-10-22T08:05:02;100741.75;;;18.58;100.00
22872;BME280;11603;44.910;8.630;2022-10-22T08:07:28;100742.34;;;18.62;100.00
22872;BME280;11603;44.910;8.630;2022-10-22T08:09:53;100744.19;;;18.71;100.00
22872;BME280;11603;44.910;8.630;2022-10-22T08:12:19;100742.47;;;18.80;100.00
22872;BME280;11603;44.910;8.630;2022-10-22T08:14:44;100745.34;;;18.78;100.00
22872;BME280;11603;44.910;8.630;2022-10-22T08:17:10;100746.72;;;18.92;100.00
22872;BME280;11603;44.910;8.630;2022-10-22T08:19:35;100746.00;;;18.90;100.00
22872;BME280;11603;44.910;8.630;2022-10-22T08:22:01;100759.44;;;18.91;100.00
22872;BME280;11603;44.910;8.630;2022-10-22T08:24:27;100763.13;;;18.90;100.00
22872;BME280;11603;44.910;8.630;2022-10-22T08:26:53;100759.16;;;18.75;100.00
22872;BME280;11603;44.910;8.630;2022-10-22T08:29:21;100746.44;;;18.85;100.00
22872;BME280;11603;44.910;8.630;2022-10-22T08:31:48;100761.84;;;18.85;100.00
22872;BME280;11603;44.910;8.630;2022-10-22T08:34:14;100769.00;;;18.86;100.00
22872;BME280;11603;44.910;8.630;2022-10-22T08:36:39;100771.28;;;18.81;100.00
22872;BME280;11603;44.910;8.630;2022-10-22T08:39:05;100782.56;;;18.76;100.00
22872;BME280;11603;44.910;8.630;2022-10-22T08:41:35;100776.00;;;18.79;100.00
22872;BME280;11603;44.910;8.630;2022-10-22T08:47:22;100767.44;;;18.93;100.00
22872;BME280;11603;44.910;8.630;2022-10-22T08:49:52;100760.25;;;19.01;100.00
22872;BME280;11603;44.910;8.630;2022-10-22T08:52:18;100762.53;;;19.06;100.00
22872;BME280;11603;44.910;8.630;2022-10-22T08:54:57;100766.53;;;19.02;100.00
22872;BME280;11603;44.910;8.630;2022-10-22T09:06:17;100764.88;;;19.38;100.00
22872;BME280;11603;44.910;8.630;2022-10-22T09:08:45;100763.16;;;19.56;100.00
22872;BME280;11603;44.910;8.630;2022-10-22T09:13:39;100758.69;;;19.65;100.00
22872;BME280;11603;44.910;8.630;2022-10-22T09:21:54;100751.75;;;19.80;100.00
22872;BME280;11603;44.910;8.630;2022-10-22T09:26:54;100756.91;;;19.83;100.00
22872;BME280;11603;44.910;8.630;2022-10-22T09:29:23;100762.00;;;19.86;100.00
22872;BME280;11603;44.910;8.630;2022-10-22T09:31:53;100761.56;;;19.91;100.00
22872;BME280;11603;44.910;8.630;2022-10-22T09:34:20;100764.72;;;19.86;100.00
22872;BME280;11603;44.910;8.630;2022-10-22T09:36:46;100767.50;;;20.04;100.00
22872;BME280;11603;44.910;8.630;2022-10-22T09:39:45;100775.34;;;20.07;100.00
22872;BME280;11603;44.910;8.630;2022-10-22T09:42:18;100775.06;;;20.00;100.00
22872;BME280;11603;44.910;8.630;2022-10-22T09:44:51;100782.47;;;20.08;100.00
22872;BME280;11603;44.910;8.630;2022-10-22T09:47:36;100782.56;;;20.16;100.00
22872;BME280;11603;44.910;8.630;2022-10-22T09:50:11;100792.34;;;20.09;100.00
22872;BME280;11603;44.910;8.630;2022-10-22T09:52:42;100793.81;;;20.21;100.00
22872;BME280;11603;44.910;8.630;2022-10-22T09:55:13;100797.41;;;20.21;100.00
22872;BME280;11603;44.910;8.630;2022-10-22T09:57:40;100796.94;;;20.26;100.00
22872;BME280;11603;44.910;8.630;2022-10-22T10:00:10;100787.50;;;20.30;100.00
22872;BME280;11603;44.910;8.630;2022-10-22T10:02:39;100784.63;;;20.32;100.00
22872;BME280;11603;44.910;8.630;2022-10-22T10:05:07;100788.03;;;20.61;100.00
22872;BME280;11603;44.910;8.630;2022-10-22T10:07:34;100792.34;;;20.54;100.00
22872;BME280;11603;44.910;8.630;2022-10-22T10:10:01;100775.44;;;20.78;100.00
22872;BME280;11603;44.910;8.630;2022-10-22T10:15:14;100783.16;;;21.26;100.00
22872;BME280;11603;44.910;8.630;2022-10-22T10:18:23;100772.44;;;21.50;100.00
22872;BME280;11603;44.910;8.630;2022-10-22T10:21:05;100776.94;;;21.67;100.00
22872;BME280;11603;44.910;8.630;2022-10-22T10:23:59;100781.75;;;21.47;100.00
22872;BME280;11603;44.910;8.630;2022-10-22T10:34:46;100777.34;;;22.14;100.00
22872;BME280;11603;44.910;8.630;2022-10-22T10:37:34;100785.72;;;22.21;100.00
22872;BME280;11603;44.910;8.630;2022-10-22T10:43:29;100782.59;;;21.74;100.00
22872;BME280;11603;44.910;8.630;2022-10-22T10:46:14;100774.41;;;21.66;100.00
22872;BME280;11603;44.910;8.630;2022-10-22T11:02:35;100786.59;;;21.62;100.00
22872;BME280;11603;44.910;8.630;2022-10-22T11:08:27;100767.22;;;21.98;100.00
22872;BME280;11603;44.910;8.630;2022-10-22T11:11:05;100763.56;;;22.16;100.00
22872;BME280;11603;44.910;8.630;2022-10-22T11:16:18;100736.22;;;22.50;100.00
22872;BME280;11603;44.910;8.630;2022-10-22T11:19:18;100733.28;;;22.27;100.00
22872;BME280;11603;44.910;8.630;2022-10-22T11:21:48;100730.69;;;22.17;100.00
22872;BME280;11603;44.910;8.630;2022-10-22T11:27:10;100739.94;;;21.82;100.00
22872;BME280;11603;44.910;8.630;2022-10-22T11:29:45;100742.44;;;21.76;100.00
22872;BME280;11603;44.910;8.630;2022-10-22T11:32:16;100744.31;;;21.75;100.00
22872;BME280;11603;44.910;8.630;2022-10-22T11:34:50;100748.09;;;21.82;100.00
22872;BME280;11603;44.910;8.630;2022-10-22T11:37:19;100752.25;;;21.94;100.00
22872;BME280;11603;44.910;8.630;2022-10-22T11:40:06;100751.94;;;22.06;100.00
22872;BME280;11603;44.910;8.630;2022-10-22T11:42:35;100748.34;;;21.97;100.00
22872;BME280;11603;44.910;8.630;2022-10-22T11:51:27;100749.38;;;21.96;100.00
22872;BME280;11603;44.910;8.630;2022-10-22T11:55:52;100750.78;;;22.16;100.00
22872;BME280;11603;44.910;8.630;2022-10-22T12:11:39;100735.16;;;22.51;100.00
22872;BME280;11603;44.910;8.630;2022-10-22T12:16:56;100733.13;;;22.28;100.00
22872;BME280;11603;44.910;8.630;2022-10-22T12:19:26;100729.19;;;22.31;100.00
22872;BME280;11603;44.910;8.630;2022-10-22T12:22:16;100720.34;;;22.61;100.00
22872;BME280;11603;44.910;8.630;2022-10-22T12:24:46;100718.31;;;23.04;100.00
22872;BME280;11603;44.910;8.630;2022-10-22T12:30:01;100708.06;;;23.14;100.00
22872;BME280;11603;44.910;8.630;2022-10-22T12:32:35;100704.09;;;23.41;100.00
22872;BME280;11603;44.910;8.630;2022-10-22T12:35:10;100702.19;;;23.57;100.00
22872;BME280;11603;44.910;8.630;2022-10-22T12:37:38;100697.84;;;23.79;100.00
22872;BME280;11603;44.910;8.630;2022-10-22T12:40:25;100691.97;;;23.90;100.00
22872;BME280;11603;44.910;8.630;2022-10-22T12:45:17;100697.44;;;23.90;100.00
22872;BME280;11603;44.910;8.630;2022-10-22T12:47:45;100692.13;;;23.97;100.00
22872;BME280;11603;44.910;8.630;2022-10-22T12:50:18;100685.59;;;24.29;100.00
22872;BME280;11603;44.910;8.630;2022-10-22T12:52:46;100688.84;;;24.01;100.00
22872;BME280;11603;44.910;8.630;2022-10-22T12:55:19;100679.41;;;23.73;100.00
22872;BME280;11603;44.910;8.630;2022-10-22T12:57:47;100679.34;;;23.50;100.00
22872;BME280;11603;44.910;8.630;2022-10-22T13:00:28;100669.97;;;23.37;100.00
22872;BME280;11603;44.910;8.630;2022-10-22T13:03:05;100670.16;;;23.35;100.00
22872;BME280;11603;44.910;8.630;2022-10-22T13:05:31;100670.34;;;23.34;100.00
22872;BME280;11603;44.910;8.630;2022-10-22T13:08:11;100675.28;;;23.38;100.00
22872;BME280;11603;44.910;8.630;2022-10-22T13:10:39;100680.56;;;23.32;100.00
22872;BME280;11603;44.910;8.630;2022-10-22T13:13:05;100679.34;;;23.50;100.00
22872;BME280;11603;44.910;8.630;2022-10-22T13:18:05;100686.59;;;24.05;100.00
22872;BME280;11603;44.910;8.630;2022-10-22T13:20:31;100685.25;;;24.32;100.00
22872;BME280;11603;44.910;8.630;2022-10-22T13:23:02;100680.59;;;24.55;100.00
22872;BME280;11603;44.910;8.630;2022-10-22T13:25:30;100673.91;;;24.80;100.00
22872;BME280;11603;44.910;8.630;2022-10-22T13:28:22;100673.22;;;25.01;100.00
22872;BME280;11603;44.910;8.630;2022-10-22T13:31:00;100681.06;;;25.04;100.00
22872;BME280;11603;44.910;8.630;2022-10-22T13:33:31;100670.50;;;25.30;100.00
22872;BME280;11603;44.910;8.630;2022-10-22T13:35:58;100662.41;;;25.22;100.00
22872;BME280;11603;44.910;8.630;2022-10-22T13:38:26;100677.69;;;25.31;100.00
22872;BME280;11603;44.910;8.630;2022-10-22T13:40:52;100674.72;;;25.18;100.00
22872;BME280;11603;44.910;8.630;2022-10-22T13:43:18;100678.31;;;25.19;100.00
22872;BME280;11603;44.910;8.630;2022-10-22T13:45:45;100672.78;;;25.42;100.00
22872;BME280;11603;44.910;8.630;2022-10-22T13:48:14;100667.47;;;25.55;100.00
22872;BME280;11603;44.910;8.630;2022-10-22T13:50:40;100669.06;;;25.49;100.00
22872;BME280;11603;44.910;8.630;2022-10-22T13:53:09;100671.16;;;25.47;100.00
22872;BME280;11603;44.910;8.630;2022-10-22T13:55:43;100668.97;;;25.28;100.00
22872;BME280;11603;44.910;8.630;2022-10-22T13:58:19;100674.16;;;25.08;100.00
22872;BME280;11603;44.910;8.630;2022-10-22T14:00:49;100665.72;;;24.80;100.00
22872;BME280;11603;44.910;8.630;2022-10-22T14:03:19;100666.47;;;24.52;100.00
22872;BME280;11603;44.910;8.630;2022-10-22T14:05:46;100673.63;;;24.30;100.00
22872;BME280;11603;44.910;8.630;2022-10-22T14:08:14;100672.38;;;24.18;100.00
22872;BME280;11603;44.910;8.630;2022-10-22T14:10:40;100665.88;;;24.11;100.00
22872;BME280;11603;44.910;8.630;2022-10-22T14:13:09;100662.13;;;24.12;100.00
22872;BME280;11603;44.910;8.630;2022-10-22T14:15:34;100675.66;;;24.05;100.00
22872;BME280;11603;44.910;8.630;2022-10-22T14:18:00;100675.34;;;24.00;100.00
22872;BME280;11603;44.910;8.630;2022-10-22T14:20:30;100674.34;;;23.93;100.00
22872;BME280;11603;44.910;8.630;2022-10-22T14:23:02;100666.69;;;23.88;100.00
22872;BME280;11603;44.910;8.630;2022-10-22T14:25:32;100679.50;;;23.88;100.00
22872;BME280;11603;44.910;8.630;2022-10-22T14:27:57;100674.03;;;23.88;100.00
22872;BME280;11603;44.910;8.630;2022-10-22T14:30:24;100670.66;;;23.86;100.00
22872;BME280;11603;44.910;8.630;2022-10-22T14:32:50;100671.69;;;23.85;100.00
22872;BME280;11603;44.910;8.630;2022-10-22T14:35:19;100671.84;;;23.83;100.00
22872;BME280;11603;44.910;8.630;2022-10-22T14:37:46;100670.50;;;23.79;100.00
22872;BME280;11603;44.910;8.630;2022-10-22T14:40:14;100671.19;;;23.81;100.00
22872;BME280;11603;44.910;8.630;2022-10-22T14:42:42;100670.69;;;23.78;100.00
22872;BME280;11603;44.910;8.630;2022-10-22T14:45:23;100674.63;;;23.75;100.00
22872;BME280;11603;44.910;8.630;2022-10-22T14:47:50;100676.38;;;23.68;100.00